sensor_id;sensor_type;location;lat;lon;timestamp;P1;durP1;ratioP1;P2;durP2;ratioP2
23668;SDS011;12011;47.422;15.018;2023-03-14T00:01:11;4.54;;;4.46;;
23668;SDS011;12011;47.422;15.018;2023-03-14T00:03:43;4.65;;;4.55;;
23668;SDS011;12011;47.422;15.018;2023-03-14T00:06:25;4.22;;;4.15;;
23668;SDS011;12011;47.422;15.018;2023-03-14T00:08:56;4.13;;;4.08;;
23668;SDS011;12011;47.422;15.018;2023-03-14T00:11:37;3.89;;;3.84;;
23668;SDS011;12011;47.422;15.018;2023-03-14T00:14:14;3.41;;;3.38;;
23668;SDS011;12011;47.422;15.018;2023-03-14T00:16:48;3.64;;;3.61;;
23668;SDS011;12011;47.422;15.018;2023-03-14T00:19:22;3.48;;;3.43;;
23668;SDS011;12011;47.422;15.018;2023-03-14T00:22:03;3.09;;;3.05;;
23668;SDS011;12011;47.422;15.018;2023-03-14T00:24:41;3.30;;;3.25;;
23668;SDS011;12011;47.422;15.018;2023-03-14T00:27:11;3.29;;;3.26;;
23668;SDS011;12011;47.422;15.018;2023-03-14T00:29:44;3.58;;;3.54;;
23668;SDS011;12011;47.422;15.018;2023-03-14T00:32:13;3.50;;;3.46;;
23668;SDS011;12011;47.422;15.018;2023-03-14T00:34:43;4.28;;;4.22;;
23668;SDS011;12011;47.422;15.018;2023-03-14T00:37:15;4.25;;;4.21;;
23668;SDS011;12011;47.422;15.018;2023-03-14T00:39:48;3.59;;;3.55;;
23668;SDS011;12011;47.422;15.018;2023-03-14T00:42:19;4.29;;;4.22;;
23668;SDS011;12011;47.422;15.018;2023-03-14T00:44:52;4.16;;;4.11;;
23668;SDS011;12011;47.422;15.018;2023-03-14T00:47:23;4.34;;;4.30;;
23668;SDS011;12011;47.422;15.018;2023-03-14T00:49:55;4.60;;;4.54;;
23668;SDS011;12011;47.422;15.018;2023-03-14T00:52:27;3.69;;;3.65;;
23668;SDS011;12011;47.422;15.018;2023-03-14T00:54:59;3.58;;;3.54;;
23668;SDS011;12011;47.422;15.018;2023-03-14T00:57:31;4.18;;;4.13;;
23668;SDS011;12011;47.422;15.018;2023-03-14T01:00:08;4.45;;;4.37;;
23668;SDS011;12011;47.422;15.018;2023-03-14T01:02:40;4.35;;;4.28;;
23668;SDS011;12011;47.422;15.018;2023-03-14T01:05:10;4.26;;;4.18;;
23668;SDS011;12011;47.422;15.018;2023-03-14T01:07:44;3.95;;;3.90;;
23668;SDS011;12011;47.422;15.018;2023-03-14T01:10:16;4.26;;;4.21;;
23668;SDS011;12011;47.422;15.018;2023-03-14T01:12:51;4.56;;;4.47;;
23668;SDS011;12011;47.422;15.018;2023-03-14T01:15:21;4.40;;;4.29;;
23668;SDS011;12011;47.422;15.018;2023-03-14T01:17:56;4.57;;;4.43;;
23668;SDS011;12011;47.422;15.018;2023-03-14T01:20:29;4.39;;;4.26;;
23668;SDS011;12011;47.422;15.018;2023-03-14T01:23:01;4.09;;;3.99;;
23668;SDS011;12011;47.422;15.018;2023-03-14T01:25:33;4.03;;;3.94;;
23668;SDS011;12011;47.422;15.018;2023-03-14T01:28:15;3.75;;;3.71;;
23668;SDS011;12011;47.422;15.018;2023-03-14T01:30:49;3.94;;;3.90;;
23668;SDS011;12011;47.422;15.018;2023-03-14T01:33:31;3.74;;;3.70;;
23668;SDS011;12011;47.422;15.018;2023-03-14T01:36:04;3.60;;;3.56;;
23668;SDS011;12011;47.422;15.018;2023-03-14T01:38:44;3.28;;;3.25;;
23668;SDS011;12011;47.422;15.018;2023-03-14T01:41:17;3.35;;;3.33;;
23668;SDS011;12011;47.422;15.018;2023-03-14T01:43:54;3.23;;;3.20;;
23668;SDS011;12011;47.422;15.018;2023-03-14T01:46:37;3.20;;;3.17;;
23668;SDS011;12011;47.422;15.018;2023-03-14T01:49:16;3.07;;;3.05;;
23668;SDS011;12011;47.422;15.018;2023-03-14T01:52:06;2.89;;;2.87;;
23668;SDS011;12011;47.422;15.018;2023-03-14T01:54:46;5.26;;;5.18;;
23668;SDS011;12011;47.422;15.018;2023-03-14T01:57:23;3.70;;;3.62;;
23668;SDS011;12011;47.422;15.018;2023-03-14T02:00:01;4.39;;;4.30;;
23668;SDS011;12011;47.422;15.018;2023-03-14T02:02:52;4.89;;;4.82;;
23668;SDS011;12011;47.422;15.018;2023-03-14T02:05:30;4.63;;;4.56;;
23668;SDS011;12011;47.422;15.018;2023-03-14T02:08:17;4.27;;;4.16;;
23668;SDS011;12011;47.422;15.018;2023-03-14T02:11:05;3.38;;;3.31;;
23668;SDS011;12011;47.422;15.018;2023-03-14T02:13:55;2.70;;;2.66;;
23668;SDS011;12011;47.422;15.018;2023-03-14T02:16:55;2.92;;;2.90;;
23668;SDS011;12011;47.422;15.018;2023-03-14T02:19:54;2.81;;;2.77;;
23668;SDS011;12011;47.422;15.018;2023-03-14T02:22:46;2.74;;;2.72;;
23668;SDS011;12011;47.422;15.018;2023-03-14T02:25:17;3.33;;;3.31;;
23668;SDS011;12011;47.422;15.018;2023-03-14T02:28:08;3.63;;;3.61;;
23668;SDS011;12011;47.422;15.018;2023-03-14T02:30:45;3.15;;;3.12;;
23668;SDS011;12011;47.422;15.018;2023-03-14T02:33:22;3.23;;;3.21;;
23668;SDS011;12011;47.422;15.018;2023-03-14T02:35:56;3.01;;;3.00;;
23668;SDS011;12011;47.422;15.018;2023-03-14T02:38:36;3.04;;;3.03;;
23668;SDS011;12011;47.422;15.018;2023-03-14T02:41:16;3.10;;;3.09;;
23668;SDS011;12011;47.422;15.018;2023-03-14T02:44:00;3.04;;;3.03;;
23668;SDS011;12011;47.422;15.018;2023-03-14T02:46:33;2.72;;;2.71;;
23668;SDS011;12011;47.422;15.018;2023-03-14T02:49:05;2.79;;;2.78;;
23668;SDS011;12011;47.422;15.018;2023-03-14T02:51:42;2.72;;;2.71;;
23668;SDS011;12011;47.422;15.018;2023-03-14T02:54:17;2.67;;;2.67;;
23668;SDS011;12011;47.422;15.018;2023-03-14T02:56:50;2.73;;;2.73;;
23668;SDS011;12011;47.422;15.018;2023-03-14T02:59:23;2.52;;;2.52;;
23668;SDS011;12011;47.422;15.018;2023-03-14T03:01:59;2.83;;;2.83;;
23668;SDS011;12011;47.422;15.018;2023-03-14T03:04:32;2.81;;;2.81;;
23668;SDS011;12011;47.422;15.018;2023-03-14T03:07:01;2.84;;;2.83;;
23668;SDS011;12011;47.422;15.018;2023-03-14T03:09:34;2.49;;;2.48;;
23668;SDS011;12011;47.422;15.018;2023-03-14T03:12:07;2.68;;;2.67;;
23668;SDS011;12011;47.422;15.018;2023-03-14T03:14:41;2.48;;;2.47;;
23668;SDS011;12011;47.422;15.018;2023-03-14T03:17:12;3.16;;;3.14;;
23668;SDS011;12011;47.422;15.018;2023-03-14T03:19:47;3.05;;;3.04;;
23668;SDS011;12011;47.422;15.018;2023-03-14T03:22:22;2.86;;;2.85;;
23668;SDS011;12011;47.422;15.018;2023-03-14T03:24:55;2.69;;;2.68;;
23668;SDS011;12011;47.422;15.018;2023-03-14T03:27:25;2.80;;;2.79;;
23668;SDS011;12011;47.422;15.018;2023-03-14T03:30:01;2.91;;;2.91;;
23668;SDS011;12011;47.422;15.018;2023-03-14T03:32:36;2.61;;;2.61;;
23668;SDS011;12011;47.422;15.018;2023-03-14T03:35:10;2.60;;;2.60;;
23668;SDS011;12011;47.422;15.018;2023-03-14T03:37:41;2.70;;;2.69;;
23668;SDS011;12011;47.422;15.018;2023-03-14T03:40:28;2.65;;;2.64;;
23668;SDS011;12011;47.422;15.018;2023-03-14T03:42:58;2.61;;;2.61;;
23668;SDS011;12011;47.422;15.018;2023-03-14T03:45:32;2.39;;;2.38;;
23668;SDS011;12011;47.422;15.018;2023-03-14T03:48:05;2.34;;;2.34;;
23668;SDS011;12011;47.422;15.018;2023-03-14T03:50:43;2.42;;;2.41;;
23668;SDS011;12011;47.422;15.018;2023-03-14T03:53:20;2.37;;;2.36;;
23668;SDS011;12011;47.422;15.018;2023-03-14T03:55:50;2.32;;;2.32;;
23668;SDS011;12011;47.422;15.018;2023-03-14T03:58:23;2.34;;;2.33;;
23668;SDS011;12011;47.422;15.018;2023-03-14T04:00:58;2.93;;;2.93;;
23668;SDS011;12011;47.422;15.018;2023-03-14T04:03:31;2.77;;;2.77;;
23668;SDS011;12011;47.422;15.018;2023-03-14T04:06:05;2.72;;;2.71;;
23668;SDS011;12011;47.422;15.018;2023-03-14T04:08:40;2.58;;;2.56;;
23668;SDS011;12011;47.422;15.018;2023-03-14T04:11:29;2.44;;;2.44;;
23668;SDS011;12011;47.422;15.018;2023-03-14T04:14:11;2.50;;;2.50;;
23668;SDS011;12011;47.422;15.018;2023-03-14T04:16:50;3.69;;;3.68;;
23668;SDS011;12011;47.422;15.018;2023-03-14T04:19:25;5.59;;;5.47;;
23668;SDS011;12011;47.422;15.018;2023-03-14T04:21:56;4.42;;;4.36;;
23668;SDS011;12011;47.422;15.018;2023-03-14T04:24:34;4.11;;;4.08;;
23668;SDS011;12011;47.422;15.018;2023-03-14T04:27:06;3.75;;;3.72;;
23668;SDS011;12011;47.422;15.018;2023-03-14T04:29:36;4.13;;;4.09;;
23668;SDS011;12011;47.422;15.018;2023-03-14T04:32:13;3.53;;;3.51;;
23668;SDS011;12011;47.422;15.018;2023-03-14T04:34:47;3.18;;;3.16;;
23668;SDS011;12011;47.422;15.018;2023-03-14T04:37:22;3.15;;;3.13;;
23668;SDS011;12011;47.422;15.018;2023-03-14T04:39:55;3.07;;;3.06;;
23668;SDS011;12011;47.422;15.018;2023-03-14T04:42:32;9.30;;;9.05;;
23668;SDS011;12011;47.422;15.018;2023-03-14T04:45:05;22.56;;;19.83;;
23668;SDS011;12011;47.422;15.018;2023-03-14T04:47:40;13.39;;;12.07;;
23668;SDS011;12011;47.422;15.018;2023-03-14T04:50:15;10.44;;;9.67;;
23668;SDS011;12011;47.422;15.018;2023-03-14T04:52:48;6.32;;;5.81;;
23668;SDS011;12011;47.422;15.018;2023-03-14T04:55:19;6.23;;;5.89;;
23668;SDS011;12011;47.422;15.018;2023-03-14T04:57:57;7.04;;;6.62;;
23668;SDS011;12011;47.422;15.018;2023-03-14T05:00:34;7.50;;;7.18;;
23668;SDS011;12011;47.422;15.018;2023-03-14T05:03:38;5.90;;;5.65;;
23668;SDS011;12011;47.422;15.018;2023-03-14T05:06:23;5.94;;;5.78;;
23668;SDS011;12011;47.422;15.018;2023-03-14T05:09:05;5.62;;;5.52;;
23668;SDS011;12011;47.422;15.018;2023-03-14T05:12:05;4.63;;;4.57;;
23668;SDS011;12011;47.422;15.018;2023-03-14T05:15:21;4.45;;;4.35;;
23668;SDS011;12011;47.422;15.018;2023-03-14T05:18:18;4.17;;;4.10;;
23668;SDS011;12011;47.422;15.018;2023-03-14T05:21:12;4.02;;;3.97;;
23668;SDS011;12011;47.422;15.018;2023-03-14T05:23:42;13.07;;;12.55;;
23668;SDS011;12011;47.422;15.018;2023-03-14T05:26:34;15.66;;;14.57;;
23668;SDS011;12011;47.422;15.018;2023-03-14T05:29:38;12.56;;;11.83;;
23668;SDS011;12011;47.422;15.018;2023-03-14T05:32:44;12.14;;;11.39;;
23668;SDS011;12011;47.422;15.018;2023-03-14T05:35:39;10.70;;;10.04;;
23668;SDS011;12011;47.422;15.018;2023-03-14T05:38:32;8.99;;;8.59;;
23668;SDS011;12011;47.422;15.018;2023-03-14T05:41:17;5.63;;;5.47;;
23668;SDS011;12011;47.422;15.018;2023-03-14T05:44:16;4.08;;;3.98;;
23668;SDS011;12011;47.422;15.018;2023-03-14T05:47:27;7.81;;;7.50;;
23668;SDS011;12011;47.422;15.018;2023-03-14T05:50:23;13.41;;;12.89;;
23668;SDS011;12011;47.422;15.018;2023-03-14T05:53:09;10.52;;;10.25;;
23668;SDS011;12011;47.422;15.018;2023-03-14T05:55:50;9.90;;;9.73;;
23668;SDS011;12011;47.422;15.018;2023-03-14T05:58:57;9.73;;;9.53;;
23668;SDS011;12011;47.422;15.018;2023-03-14T06:01:33;8.51;;;8.31;;
23668;SDS011;12011;47.422;15.018;2023-03-14T06:04:16;8.34;;;8.18;;
23668;SDS011;12011;47.422;15.018;2023-03-14T06:06:52;7.96;;;7.78;;
23668;SDS011;12011;47.422;15.018;2023-03-14T06:09:22;7.30;;;7.15;;
23668;SDS011;12011;47.422;15.018;2023-03-14T06:12:10;6.97;;;6.78;;
23668;SDS011;12011;47.422;15.018;2023-03-14T06:14:45;5.46;;;5.37;;
23668;SDS011;12011;47.422;15.018;2023-03-14T06:17:16;6.45;;;6.35;;
23668;SDS011;12011;47.422;15.018;2023-03-14T06:19:52;6.17;;;6.10;;
23668;SDS011;12011;47.422;15.018;2023-03-14T06:22:22;6.86;;;6.75;;
23668;SDS011;12011;47.422;15.018;2023-03-14T06:24:53;7.43;;;7.18;;
23668;SDS011;12011;47.422;15.018;2023-03-14T06:27:26;6.85;;;6.70;;
23668;SDS011;12011;47.422;15.018;2023-03-14T06:29:57;8.05;;;7.81;;
23668;SDS011;12011;47.422;15.018;2023-03-14T06:32:29;9.15;;;8.75;;
23668;SDS011;12011;47.422;15.018;2023-03-14T06:35:03;8.95;;;8.59;;
23668;SDS011;12011;47.422;15.018;2023-03-14T06:37:37;9.33;;;8.90;;
23668;SDS011;12011;47.422;15.018;2023-03-14T06:40:07;9.38;;;8.87;;
23668;SDS011;12011;47.422;15.018;2023-03-14T06:42:55;9.20;;;8.80;;
23668;SDS011;12011;47.422;15.018;2023-03-14T06:45:27;9.28;;;8.90;;
23668;SDS011;12011;47.422;15.018;2023-03-14T06:47:58;8.75;;;8.39;;
23668;SDS011;12011;47.422;15.018;2023-03-14T06:50:37;8.49;;;8.25;;
23668;SDS011;12011;47.422;15.018;2023-03-14T06:53:07;9.25;;;8.90;;
23668;SDS011;12011;47.422;15.018;2023-03-14T06:55:41;8.76;;;8.34;;
23668;SDS011;12011;47.422;15.018;2023-03-14T06:58:14;9.07;;;8.60;;
23668;SDS011;12011;47.422;15.018;2023-03-14T07:00:45;8.23;;;7.91;;
23668;SDS011;12011;47.422;15.018;2023-03-14T07:03:20;8.94;;;8.53;;
23668;SDS011;12011;47.422;15.018;2023-03-14T07:05:53;9.91;;;9.41;;
23668;SDS011;12011;47.422;15.018;2023-03-14T07:08:23;10.29;;;9.95;;
23668;SDS011;12011;47.422;15.018;2023-03-14T07:10:52;9.48;;;9.16;;
23668;SDS011;12011;47.422;15.018;2023-03-14T07:13:27;9.31;;;8.94;;
23668;SDS011;12011;47.422;15.018;2023-03-14T07:16:02;8.91;;;8.70;;
23668;SDS011;12011;47.422;15.018;2023-03-14T07:18:32;8.80;;;8.58;;
23668;SDS011;12011;47.422;15.018;2023-03-14T07:21:04;9.38;;;9.01;;
23668;SDS011;12011;47.422;15.018;2023-03-14T07:23:36;8.63;;;8.33;;
23668;SDS011;12011;47.422;15.018;2023-03-14T07:26:07;9.02;;;8.58;;
23668;SDS011;12011;47.422;15.018;2023-03-14T07:28:45;8.87;;;8.52;;
23668;SDS011;12011;47.422;15.018;2023-03-14T07:31:18;8.99;;;8.73;;
23668;SDS011;12011;47.422;15.018;2023-03-14T07:33:47;8.30;;;8.01;;
23668;SDS011;12011;47.422;15.018;2023-03-14T07:36:18;8.27;;;7.91;;
23668;SDS011;12011;47.422;15.018;2023-03-14T07:38:48;9.00;;;8.73;;
23668;SDS011;12011;47.422;15.018;2023-03-14T07:41:26;9.12;;;8.79;;
23668;SDS011;12011;47.422;15.018;2023-03-14T07:44:17;8.91;;;8.50;;
23668;SDS011;12011;47.422;15.018;2023-03-14T07:46:46;8.90;;;8.32;;
23668;SDS011;12011;47.422;15.018;2023-03-14T07:49:16;9.02;;;8.60;;
23668;SDS011;12011;47.422;15.018;2023-03-14T07:51:47;8.52;;;8.17;;
23668;SDS011;12011;47.422;15.018;2023-03-14T07:54:17;8.78;;;8.51;;
23668;SDS011;12011;47.422;15.018;2023-03-14T07:56:46;8.75;;;8.45;;
23668;SDS011;12011;47.422;15.018;2023-03-14T07:59:18;8.32;;;7.98;;
23668;SDS011;12011;47.422;15.018;2023-03-14T08:01:49;8.36;;;8.12;;
23668;SDS011;12011;47.422;15.018;2023-03-14T08:04:19;9.37;;;9.01;;
23668;SDS011;12011;47.422;15.018;2023-03-14T08:06:49;9.60;;;9.25;;
23668;SDS011;12011;47.422;15.018;2023-03-14T08:09:19;9.24;;;9.01;;
23668;SDS011;12011;47.422;15.018;2023-03-14T08:11:49;9.11;;;8.71;;
23668;SDS011;12011;47.422;15.018;2023-03-14T08:14:21;8.38;;;8.11;;
23668;SDS011;12011;47.422;15.018;2023-03-14T08:16:51;8.53;;;8.28;;
23668;SDS011;12011;47.422;15.018;2023-03-14T08:19:21;8.92;;;8.60;;
23668;SDS011;12011;47.422;15.018;2023-03-14T08:21:50;9.45;;;9.06;;
23668;SDS011;12011;47.422;15.018;2023-03-14T08:24:20;8.74;;;8.35;;
23668;SDS011;12011;47.422;15.018;2023-03-14T08:26:49;8.73;;;8.35;;
23668;SDS011;12011;47.422;15.018;2023-03-14T08:29:21;9.03;;;8.61;;
23668;SDS011;12011;47.422;15.018;2023-03-14T08:31:50;9.15;;;8.70;;
23668;SDS011;12011;47.422;15.018;2023-03-14T08:34:20;9.26;;;8.72;;
23668;SDS011;12011;47.422;15.018;2023-03-14T08:36:53;9.11;;;8.70;;
23668;SDS011;12011;47.422;15.018;2023-03-14T08:39:23;8.62;;;8.21;;
23668;SDS011;12011;47.422;15.018;2023-03-14T08:41:52;7.97;;;7.62;;
23668;SDS011;12011;47.422;15.018;2023-03-14T08:44:24;7.78;;;7.51;;
23668;SDS011;12011;47.422;15.018;2023-03-14T08:46:54;7.51;;;7.28;;
23668;SDS011;12011;47.422;15.018;2023-03-14T08:49:24;7.46;;;7.22;;
23668;SDS011;12011;47.422;15.018;2023-03-14T08:51:53;7.64;;;7.34;;
23668;SDS011;12011;47.422;15.018;2023-03-14T08:54:22;7.85;;;7.56;;
23668;SDS011;12011;47.422;15.018;2023-03-14T08:56:52;8.01;;;7.70;;
23668;SDS011;12011;47.422;15.018;2023-03-14T08:59:21;8.62;;;8.29;;
23668;SDS011;12011;47.422;15.018;2023-03-14T09:01:54;9.66;;;9.26;;
23668;SDS011;12011;47.422;15.018;2023-03-14T09:04:23;10.38;;;9.98;;
23668;SDS011;12011;47.422;15.018;2023-03-14T09:06:52;9.39;;;9.00;;
23668;SDS011;12011;47.422;15.018;2023-03-14T09:09:23;8.62;;;8.32;;
23668;SDS011;12011;47.422;15.018;2023-03-14T09:11:53;8.89;;;8.55;;
23668;SDS011;12011;47.422;15.018;2023-03-14T09:14:25;8.71;;;8.37;;
23668;SDS011;12011;47.422;15.018;2023-03-14T09:16:54;8.95;;;8.56;;
23668;SDS011;12011;47.422;15.018;2023-03-14T09:19:24;8.88;;;8.54;;
23668;SDS011;12011;47.422;15.018;2023-03-14T09:21:53;8.68;;;8.36;;
23668;SDS011;12011;47.422;15.018;2023-03-14T09:24:23;8.98;;;8.70;;
23668;SDS011;12011;47.422;15.018;2023-03-14T09:26:52;8.36;;;8.10;;
23668;SDS011;12011;47.422;15.018;2023-03-14T09:29:26;8.80;;;8.50;;
23668;SDS011;12011;47.422;15.018;2023-03-14T09:31:56;9.29;;;9.03;;
23668;SDS011;12011;47.422;15.018;2023-03-14T09:34:27;9.25;;;8.94;;
23668;SDS011;12011;47.422;15.018;2023-03-14T09:36:56;9.00;;;8.54;;
23668;SDS011;12011;47.422;15.018;2023-03-14T09:39:26;9.16;;;8.79;;
23668;SDS011;12011;47.422;15.018;2023-03-14T09:41:55;11.45;;;11.05;;
23668;SDS011;12011;47.422;15.018;2023-03-14T09:44:33;10.51;;;10.15;;
23668;SDS011;12011;47.422;15.018;2023-03-14T09:47:18;11.03;;;10.67;;
23668;SDS011;12011;47.422;15.018;2023-03-14T09:49:48;10.63;;;10.35;;
23668;SDS011;12011;47.422;15.018;2023-03-14T09:52:18;10.89;;;10.64;;
23668;SDS011;12011;47.422;15.018;2023-03-14T09:54:56;11.47;;;11.18;;
23668;SDS011;12011;47.422;15.018;2023-03-14T09:57:32;10.99;;;10.77;;
23668;SDS011;12011;47.422;15.018;2023-03-14T10:00:10;10.70;;;10.52;;
23668;SDS011;12011;47.422;15.018;2023-03-14T10:02:50;10.65;;;10.48;;
23668;SDS011;12011;47.422;15.018;2023-03-14T10:05:24;9.15;;;8.88;;
23668;SDS011;12011;47.422;15.018;2023-03-14T10:07:55;9.51;;;9.24;;
23668;SDS011;12011;47.422;15.018;2023-03-14T10:10:25;8.70;;;8.48;;
23668;SDS011;12011;47.422;15.018;2023-03-14T10:12:56;7.31;;;7.09;;
23668;SDS011;12011;47.422;15.018;2023-03-14T10:15:31;12.52;;;12.33;;
23668;SDS011;12011;47.422;15.018;2023-03-14T10:18:03;12.40;;;12.19;;
23668;SDS011;12011;47.422;15.018;2023-03-14T10:20:40;9.59;;;9.40;;
23668;SDS011;12011;47.422;15.018;2023-03-14T10:23:22;8.81;;;8.61;;
23668;SDS011;12011;47.422;15.018;2023-03-14T10:25:59;8.27;;;8.10;;
23668;SDS011;12011;47.422;15.018;2023-03-14T10:28:37;7.83;;;7.63;;
23668;SDS011;12011;47.422;15.018;2023-03-14T10:31:13;8.65;;;8.52;;
23668;SDS011;12011;47.422;15.018;2023-03-14T10:33:43;9.89;;;9.65;;
23668;SDS011;12011;47.422;15.018;2023-03-14T10:36:27;8.71;;;8.52;;
23668;SDS011;12011;47.422;15.018;2023-03-14T10:39:15;5.05;;;4.95;;
23668;SDS011;12011;47.422;15.018;2023-03-14T10:41:56;4.90;;;4.77;;
23668;SDS011;12011;47.422;15.018;2023-03-14T10:44:35;4.76;;;4.62;;
23668;SDS011;12011;47.422;15.018;2023-03-14T10:47:14;3.54;;;3.46;;
23668;SDS011;12011;47.422;15.018;2023-03-14T10:49:48;2.92;;;2.83;;
23668;SDS011;12011;47.422;15.018;2023-03-14T10:52:19;3.83;;;3.68;;
23668;SDS011;12011;47.422;15.018;2023-03-14T10:54:54;6.12;;;5.93;;
23668;SDS011;12011;47.422;15.018;2023-03-14T10:57:26;3.03;;;2.95;;
23668;SDS011;12011;47.422;15.018;2023-03-14T10:59:56;2.49;;;2.41;;
23668;SDS011;12011;47.422;15.018;2023-03-14T11:02:41;2.63;;;2.47;;
23668;SDS011;12011;47.422;15.018;2023-03-14T11:05:30;2.83;;;2.69;;
23668;SDS011;12011;47.422;15.018;2023-03-14T11:08:08;1.40;;;1.35;;
23668;SDS011;12011;47.422;15.018;2023-03-14T11:10:46;1.34;;;1.27;;
23668;SDS011;12011;47.422;15.018;2023-03-14T11:13:23;1.48;;;1.40;;
23668;SDS011;12011;47.422;15.018;2023-03-14T11:16:02;1.51;;;1.43;;
23668;SDS011;12011;47.422;15.018;2023-03-14T11:18:59;1.60;;;1.54;;
23668;SDS011;12011;47.422;15.018;2023-03-14T11:21:56;1.25;;;1.21;;
23668;SDS011;12011;47.422;15.018;2023-03-14T11:24:37;1.30;;;1.26;;
23668;SDS011;12011;47.422;15.018;2023-03-14T11:27:21;1.08;;;1.04;;
23668;SDS011;12011;47.422;15.018;2023-03-14T11:29:55;1.02;;;0.98;;
23668;SDS011;12011;47.422;15.018;2023-03-14T11:32:36;0.93;;;0.90;;
23668;SDS011;12011;47.422;15.018;2023-03-14T11:35:19;0.68;;;0.66;;
23668;SDS011;12011;47.422;15.018;2023-03-14T11:37:55;0.61;;;0.59;;
23668;SDS011;12011;47.422;15.018;2023-03-14T11:40:52;0.65;;;0.62;;
23668;SDS011;12011;47.422;15.018;2023-03-14T11:43:26;0.55;;;0.53;;
23668;SDS011;12011;47.422;15.018;2023-03-14T11:46:04;0.61;;;0.59;;
23668;SDS011;12011;47.422;15.018;2023-03-14T11:48:43;0.71;;;0.68;;
23668;SDS011;12011;47.422;15.018;2023-03-14T11:51:27;0.44;;;0.42;;
23668;SDS011;12011;47.422;15.018;2023-03-14T11:54:04;0.35;;;0.34;;
23668;SDS011;12011;47.422;15.018;2023-03-14T11:56:46;0.26;;;0.25;;
23668;SDS011;12011;47.422;15.018;2023-03-14T11:59:23;0.22;;;0.21;;
23668;SDS011;12011;47.422;15.018;2023-03-14T12:02:00;0.14;;;0.13;;
23668;SDS011;12011;47.422;15.018;2023-03-14T12:04:41;0.32;;;0.31;;
23668;SDS011;12011;47.422;15.018;2023-03-14T12:07:29;0.14;;;0.14;;
23668;SDS011;12011;47.422;15.018;2023-03-14T12:10:14;0.24;;;0.23;;
23668;SDS011;12011;47.422;15.018;2023-03-14T12:12:45;0.19;;;0.18;;
23668;SDS011;12011;47.422;15.018;2023-03-14T12:15:19;0.26;;;0.25;;
23668;SDS011;12011;47.422;15.018;2023-03-14T12:18:00;0.24;;;0.23;;
23668;SDS011;12011;47.422;15.018;2023-03-14T12:20:32;0.24;;;0.23;;
23668;SDS011;12011;47.422;15.018;2023-03-14T12:23:12;0.22;;;0.21;;
23668;SDS011;12011;47.422;15.018;2023-03-14T12:25:43;0.25;;;0.24;;
23668;SDS011;12011;47.422;15.018;2023-03-14T12:28:18;0.17;;;0.16;;
23668;SDS011;12011;47.422;15.018;2023-03-14T12:30:50;0.24;;;0.23;;
23668;SDS011;12011;47.422;15.018;2023-03-14T12:33:27;0.22;;;0.21;;
23668;SDS011;12011;47.422;15.018;2023-03-14T12:39:29;0.31;;;0.30;;
23668;SDS011;12011;47.422;15.018;2023-03-14T12:42:17;0.17;;;0.17;;
23668;SDS011;12011;47.422;15.018;2023-03-14T12:45:21;0.49;;;0.46;;
23668;SDS011;12011;47.422;15.018;2023-03-14T12:48:04;0.25;;;0.24;;
23668;SDS011;12011;47.422;15.018;2023-03-14T12:50:45;0.42;;;0.40;;
23668;SDS011;12011;47.422;15.018;2023-03-14T12:56:32;0.41;;;0.39;;
23668;SDS011;12011;47.422;15.018;2023-03-14T12:59:36;0.27;;;0.25;;
23668;SDS011;12011;47.422;15.018;2023-03-14T13:02:17;0.20;;;0.19;;
23668;SDS011;12011;47.422;15.018;2023-03-14T13:05:08;0.19;;;0.18;;
23668;SDS011;12011;47.422;15.018;2023-03-14T13:08:03;0.22;;;0.21;;
23668;SDS011;12011;47.422;15.018;2023-03-14T13:10:38;0.36;;;0.35;;
23668;SDS011;12011;47.422;15.018;2023-03-14T13:13:19;0.32;;;0.31;;
23668;SDS011;12011;47.422;15.018;2023-03-14T13:15:55;0.18;;;0.17;;
23668;SDS011;12011;47.422;15.018;2023-03-14T13:18:29;0.20;;;0.19;;
23668;SDS011;12011;47.422;15.018;2023-03-14T13:21:06;0.22;;;0.21;;
23668;SDS011;12011;47.422;15.018;2023-03-14T13:23:55;0.18;;;0.18;;
23668;SDS011;12011;47.422;15.018;2023-03-14T13:26:32;0.12;;;0.11;;
23668;SDS011;12011;47.422;15.018;2023-03-14T13:29:19;0.15;;;0.15;;
23668;SDS011;12011;47.422;15.018;2023-03-14T13:31:53;0.09;;;0.09;;
23668;SDS011;12011;47.422;15.018;2023-03-14T13:34:25;0.07;;;0.06;;
23668;SDS011;12011;47.422;15.018;2023-03-14T13:36:57;0.06;;;0.06;;
23668;SDS011;12011;47.422;15.018;2023-03-14T13:39:27;0.06;;;0.06;;
23668;SDS011;12011;47.422;15.018;2023-03-14T13:41:58;0.08;;;0.08;;
23668;SDS011;12011;47.422;15.018;2023-03-14T13:44:33;0.03;;;0.03;;
23668;SDS011;12011;47.422;15.018;2023-03-14T13:47:10;0.07;;;0.07;;
23668;SDS011;12011;47.422;15.018;2023-03-14T13:49:45;0.13;;;0.12;;
23668;SDS011;12011;47.422;15.018;2023-03-14T13:52:21;0.01;;;0.01;;
23668;SDS011;12011;47.422;15.018;2023-03-14T13:55:05;0.13;;;0.13;;
23668;SDS011;12011;47.422;15.018;2023-03-14T13:57:44;0.05;;;0.05;;
23668;SDS011;12011;47.422;15.018;2023-03-14T14:00:23;0.22;;;0.21;;
23668;SDS011;12011;47.422;15.018;2023-03-14T14:02:55;0.05;;;0.04;;
23668;SDS011;12011;47.422;15.018;2023-03-14T14:05:28;0.00;;;0.00;;
23668;SDS011;12011;47.422;15.018;2023-03-14T14:07:59;0.12;;;0.12;;
23668;SDS011;12011;47.422;15.018;2023-03-14T14:10:32;0.00;;;0.00;;
23668;SDS011;12011;47.422;15.018;2023-03-14T14:13:08;0.06;;;0.06;;
23668;SDS011;12011;47.422;15.018;2023-03-14T14:15:47;0.03;;;0.03;;
23668;SDS011;12011;47.422;15.018;2023-03-14T14:18:22;0.09;;;0.08;;
23668;SDS011;12011;47.422;15.018;2023-03-14T14:20:56;0.00;;;0.00;;
23668;SDS011;12011;47.422;15.018;2023-03-14T14:23:27;0.09;;;0.09;;
23668;SDS011;12011;47.422;15.018;2023-03-14T14:25:59;0.02;;;0.02;;
23668;SDS011;12011;47.422;15.018;2023-03-14T14:28:29;0.02;;;0.02;;
23668;SDS011;12011;47.422;15.018;2023-03-14T14:31:16;0.14;;;0.14;;
23668;SDS011;12011;47.422;15.018;2023-03-14T14:33:54;0.10;;;0.09;;
23668;SDS011;12011;47.422;15.018;2023-03-14T14:36:27;0.08;;;0.08;;
23668;SDS011;12011;47.422;15.018;2023-03-14T14:39:02;0.04;;;0.04;;
23668;SDS011;12011;47.422;15.018;2023-03-14T14:41:40;0.08;;;0.07;;
23668;SDS011;12011;47.422;15.018;2023-03-14T14:44:11;0.08;;;0.08;;
23668;SDS011;12011;47.422;15.018;2023-03-14T14:46:48;0.14;;;0.13;;
23668;SDS011;12011;47.422;15.018;2023-03-14T14:49:18;0.44;;;0.43;;
23668;SDS011;12011;47.422;15.018;2023-03-14T14:51:49;1.59;;;1.54;;
23668;SDS011;12011;47.422;15.018;2023-03-14T14:54:31;2.35;;;2.31;;
23668;SDS011;12011;47.422;15.018;2023-03-14T14:57:05;2.58;;;2.55;;
23668;SDS011;12011;47.422;15.018;2023-03-14T14:59:47;2.70;;;2.67;;
23668;SDS011;12011;47.422;15.018;2023-03-14T15:02:32;1.83;;;1.80;;
23668;SDS011;12011;47.422;15.018;2023-03-14T15:05:12;1.12;;;1.11;;
23668;SDS011;12011;47.422;15.018;2023-03-14T15:07:42;0.40;;;0.40;;
23668;SDS011;12011;47.422;15.018;2023-03-14T15:10:12;0.38;;;0.38;;
23668;SDS011;12011;47.422;15.018;2023-03-14T15:12:44;0.78;;;0.77;;
23668;SDS011;12011;47.422;15.018;2023-03-14T15:15:15;0.69;;;0.68;;
23668;SDS011;12011;47.422;15.018;2023-03-14T15:17:48;0.63;;;0.62;;
23668;SDS011;12011;47.422;15.018;2023-03-14T15:20:18;0.79;;;0.78;;
23668;SDS011;12011;47.422;15.018;2023-03-14T15:22:49;0.78;;;0.77;;
23668;SDS011;12011;47.422;15.018;2023-03-14T15:25:19;1.21;;;1.21;;
23668;SDS011;12011;47.422;15.018;2023-03-14T15:27:48;1.09;;;1.09;;
23668;SDS011;12011;47.422;15.018;2023-03-14T15:30:18;0.86;;;0.85;;
23668;SDS011;12011;47.422;15.018;2023-03-14T15:32:50;0.62;;;0.62;;
23668;SDS011;12011;47.422;15.018;2023-03-14T15:35:20;1.62;;;1.61;;